Time,TemperatureF,DewpointF,PressureIn,WindDirection,WindDirectionDegrees,WindSpeedMPH,WindSpeedGustMPH,Humidity,HourlyPrecipIn,Conditions,Clouds,dailyrainin,SoftwareType,DateUTC
2013-02-25 00:02:00,14.4,9.0,30.08,South,180,0.2,0.0,79,0.00,CLR,CLR,0.00,WeatherDisplay:10.37,2013-02-25 06:02:00,
2013-02-25 00:07:00,14.2,8.9,30.08,South,180,0.0,0.0,79,0.00,CLR,CLR,0.00,WeatherDisplay:10.37,2013-02-25 06:07:00,
2013-02-25 00:12:00,14.2,8.9,30.08,SE,135,0.0,0.0,79,0.00,CLR,CLR,0.00,WeatherDisplay:10.37,2013-02-25 06:12:00,
2013-02-25 00:17:00,14.2,8.9,30.08,SSE,158,0.1,1.2,79,0.00,CLR,CLR,0.00,WeatherDisplay:10.37,2013-02-25 06:17:00,
2013-02-25 00:23:00,14.0,8.7,30.07,SSE,158,0.0,1.2,79,0.00,CLR,CLR,0.00,WeatherDisplay:10.37,2013-02-25 06:23:00,
2013-02-25 00:28:00,14.2,8.9,30.08,SSE,158,0.0,0.0,79,0.00,CLR,CLR,0.00,WeatherDisplay:10.37,2013-02-25 06:28:00,
2013-02-25 00:33:00,14.2,9.1,30.08,SSE,158,0.0,0.0,80,0.00,CLR,CLR,0.00,WeatherDisplay:10.37,2013-02-25 06:33:00,
2013-02-25 00:38:00,14.2,9.1,30.08,SSE,158,0.0,0.0,80,0.00,CLR,CLR,0.00,WeatherDisplay:10.37,2013-02-25 06:38:00,
2013-02-25 00:43:00,13.8,8.8,30.08,SSE,158,0.0,0.0,80,0.00,CLR,CLR,0.00,WeatherDisplay:10.37,2013-02-25 06:43:00,
2013-02-25 00:49:00,13.8,8.8,30.07,SSE,158,0.0,0.0,80,0.00,CLR,CLR,0.00,WeatherDisplay:10.37,2013-02-25 06:49:00,
2013-02-25 00:54:00,13.8,8.8,30.07,South,180,0.0,0.0,80,0.00,CLR,CLR,0.00,WeatherDisplay:10.37,2013-02-25 06:54:00,
2013-02-25 00:59:00,13.6,8.6,30.07,South,180,0.0,0.0,80,0.00,CLR,CLR,0.00,WeatherDisplay:10.37,2013-02-25 06:59:00,
2013-02-25 01:04:00,13.1,8.1,30.07,SSE,158,0.0,0.0,80,0.00,CLR,CLR,0.00,WeatherDisplay:10.37,2013-02-25 07:04:00,
2013-02-25 01:10:00,13.1,8.1,30.07,SSE,158,0.0,0.0,80,0.00,CLR,CLR,0.00,WeatherDisplay:10.37,2013-02-25 07:10:00,
2013-02-25 01:15:00,12.9,7.6,30.07,SSE,158,0.0,0.0,79,0.00,CLR,CLR,0.00,WeatherDisplay:10.37,2013-02-25 07:15:00,
2013-02-25 01:20:00,12.7,7.5,30.07,SSE,158,0.0,0.0,79,0.00,CLR,CLR,0.00,WeatherDisplay:10.37,2013-02-25 07:20:00,
2013-02-25 01:25:00,12.6,7.3,30.07,SSE,158,0.0,0.0,79,0.00,CLR,CLR,0.00,WeatherDisplay:10.37,2013-02-25 07:25:00,
2013-02-25 01:31:00,12.4,7.1,30.07,SSE,158,0.0,0.0,79,0.00,CLR,CLR,0.00,WeatherDisplay:10.37,2013-02-25 07:31:00,
2013-02-25 01:36:00,12.2,6.9,30.07,ESE,112,0.0,0.0,79,0.00,CLR,CLR,0.00,WeatherDisplay:10.37,2013-02-25 07:36:00,
2013-02-25 01:41:00,12.0,6.8,30.07,ESE,112,0.0,0.0,79,0.00,CLR,CLR,0.00,WeatherDisplay:10.37,2013-02-25 07:41:00,
2013-02-25 01:46:00,12.0,6.8,30.07,ESE,112,0.0,0.0,79,0.00,CLR,CLR,0.00,WeatherDisplay:10.37,2013-02-25 07:46:00,
2013-02-25 01:51:00,11.8,6.6,30.07,NNW,338,0.0,0.0,79,0.00,CLR,CLR,0.00,WeatherDisplay:10.37,2013-02-25 07:51:00,
2013-02-25 01:56:00,11.7,6.4,30.07,North,0,0.0,0.0,79,0.00,CLR,CLR,0.00,WeatherDisplay:10.37,2013-02-25 07:56:00,
2013-02-25 02:02:00,11.1,5.9,30.07,WNW,292,0.0,0.0,79,0.00,CLR,CLR,0.00,WeatherDisplay:10.37,2013-02-25 08:02:00,
2013-02-25 02:07:00,10.9,5.7,30.07,WNW,292,0.0,0.0,79,0.00,CLR,CLR,0.00,WeatherDisplay:10.37,2013-02-25 08:07:00,
2013-02-25 02:12:00,10.6,5.4,30.07,West,270,0.0,0.0,79,0.00,CLR,CLR,0.00,WeatherDisplay:10.37,2013-02-25 08:12:00,
2013-02-25 02:17:00,10.6,5.4,30.07,SSW,202,0.0,0.0,79,0.00,CLR,CLR,0.00,WeatherDisplay:10.37,2013-02-25 08:17:00,
2013-02-25 02:23:00,10.6,5.4,30.07,West,270,0.0,0.0,79,0.00,CLR,CLR,0.00,WeatherDisplay:10.37,2013-02-25 08:23:00,
2013-02-25 02:28:00,10.2,5.0,30.07,SSW,202,0.0,0.0,79,0.00,CLR,CLR,0.00,WeatherDisplay:10.37,2013-02-25 08:28:00,
2013-02-25 02:33:00,10.2,5.0,30.07,SSE,158,0.0,0.0,79,0.00,CLR,CLR,0.00,WeatherDisplay:10.37,2013-02-25 08:33:00,
2013-02-25 02:38:00,10.2,5.0,30.06,SSE,158,0.0,0.0,79,0.00,CLR,CLR,0.00,WeatherDisplay:10.37,2013-02-25 08:38:00,
2013-02-25 02:44:00,10.0,4.8,30.06,SSE,158,0.0,0.0,79,0.00,CLR,CLR,0.00,WeatherDisplay:10.37,2013-02-25 08:44:00,
2013-02-25 02:49:00,10.0,4.8,30.06,West,270,0.0,0.0,79,0.00,CLR,CLR,0.00,WeatherDisplay:10.37,2013-02-25 08:49:00,
2013-02-25 02:54:00,9.7,4.5,30.06,WNW,292,0.0,0.0,79,0.00,CLR,CLR,0.00,WeatherDisplay:10.37,2013-02-25 08:54:00,
2013-02-25 02:59:00,9.5,4.6,30.06,WNW,292,0.4,1.2,80,0.00,CLR,CLR,0.00,WeatherDisplay:10.37,2013-02-25 08:59:00,
2013-02-25 03:04:00,9.3,4.4,30.07,West,270,0.0,0.0,80,0.00,CLR,CLR,0.00,WeatherDisplay:10.37,2013-02-25 09:04:00,
2013-02-25 03:10:00,9.3,4.4,30.06,SE,135,0.0,0.0,80,0.00,CLR,CLR,0.00,WeatherDisplay:10.37,2013-02-25 09:10:00,
2013-02-25 03:15:00,9.5,4.6,30.06,SSE,158,0.0,0.0,80,0.00,CLR,CLR,0.00,WeatherDisplay:10.37,2013-02-25 09:15:00,
2013-02-25 03:20:00,9.5,4.6,30.07,NW,315,0.0,0.0,80,0.00,CLR,CLR,0.00,WeatherDisplay:10.37,2013-02-25 09:20:00,
2013-02-25 03:25:00,9.3,4.1,30.06,NW,315,0.0,0.0,79,0.00,CLR,CLR,0.00,WeatherDisplay:10.37,2013-02-25 09:25:00,
2013-02-25 03:31:00,9.3,4.1,30.06,NNW,338,0.0,0.0,79,0.00,CLR,CLR,0.00,WeatherDisplay:10.37,2013-02-25 09:31:00,
2013-02-25 03:36:00,9.3,4.1,30.06,NW,315,0.0,0.0,79,0.00,CLR,CLR,0.00,WeatherDisplay:10.37,2013-02-25 09:36:00,
2013-02-25 03:41:00,9.5,4.6,30.06,South,180,0.0,0.0,80,0.00,CLR,CLR,0.00,WeatherDisplay:10.37,2013-02-25 09:41:00,
2013-02-25 03:46:00,9.3,4.4,30.06,West,270,0.0,0.0,80,0.00,CLR,CLR,0.00,WeatherDisplay:10.37,2013-02-25 09:46:00,
2013-02-25 03:51:00,9.1,4.2,30.06,WNW,292,0.0,0.0,80,0.00,CLR,CLR,0.00,WeatherDisplay:10.37,2013-02-25 09:51:00,
2013-02-25 03:57:00,9.1,4.5,30.05,NW,315,0.0,0.0,81,0.00,CLR,CLR,0.00,WeatherDisplay:10.37,2013-02-25 09:57:00,
2013-02-25 04:02:00,9.5,4.8,30.05,NW,315,0.0,0.0,81,0.00,CLR,CLR,0.00,WeatherDisplay:10.37,2013-02-25 10:02:00,
2013-02-25 04:07:00,9.7,5.0,30.05,WNW,292,0.0,0.0,81,0.00,CLR,CLR,0.00,WeatherDisplay:10.37,2013-02-25 10:07:00,
2013-02-25 04:12:00,10.0,5.4,30.05,NW,315,1.0,1.2,81,0.00,CLR,CLR,0.00,WeatherDisplay:10.37,2013-02-25 10:12:00,
2013-02-25 04:17:00,10.2,5.5,30.05,North,0,0.0,0.0,81,0.00,CLR,CLR,0.00,WeatherDisplay:10.37,2013-02-25 10:17:00,
2013-02-25 04:23:00,10.6,5.9,30.05,NNW,338,3.2,3.5,81,0.00,CLR,CLR,0.00,WeatherDisplay:10.37,2013-02-25 10:23:00,
2013-02-25 04:28:00,10.8,6.1,30.05,WNW,292,1.0,2.3,81,0.00,CLR,CLR,0.00,WeatherDisplay:10.37,2013-02-25 10:28:00,
2013-02-25 04:33:00,10.9,6.5,30.05,NW,315,2.3,3.5,82,0.00,CLR,CLR,0.00,WeatherDisplay:10.37,2013-02-25 10:33:00,
2013-02-25 04:38:00,11.1,6.7,30.05,NNW,338,1.7,2.3,82,0.00,CLR,CLR,0.00,WeatherDisplay:10.37,2013-02-25 10:38:00,
2013-02-25 04:44:00,11.5,7.1,30.06,NNW,338,0.8,1.2,82,0.00,CLR,CLR,0.00,WeatherDisplay:10.37,2013-02-25 10:44:00,
2013-02-25 04:49:00,12.0,7.6,30.06,NNW,338,0.9,1.2,82,0.00,CLR,CLR,0.00,WeatherDisplay:10.37,2013-02-25 10:49:00,
2013-02-25 04:54:00,12.4,7.9,30.06,North,0,0.9,1.3,82,0.00,CLR,CLR,0.00,WeatherDisplay:10.37,2013-02-25 10:54:00,
2013-02-25 04:59:00,12.7,8.3,30.06,NW,315,2.7,3.5,82,0.00,CLR,CLR,0.00,WeatherDisplay:10.37,2013-02-25 10:59:00,
2013-02-25 05:04:00,12.9,8.5,30.06,NW,315,1.0,2.3,82,0.00,CLR,CLR,0.00,WeatherDisplay:10.37,2013-02-25 11:04:00,
2013-02-25 05:10:00,13.3,8.8,30.06,NNE,22,0.0,0.0,82,0.00,CLR,CLR,0.00,WeatherDisplay:10.37,2013-02-25 11:10:00,
2013-02-25 05:15:00,13.6,9.4,30.06,NNE,22,0.0,1.1,83,0.00,CLR,CLR,0.00,WeatherDisplay:10.37,2013-02-25 11:15:00,
2013-02-25 05:20:00,13.8,9.6,30.06,NNE,22,0.0,0.0,83,0.00,CLR,CLR,0.00,WeatherDisplay:10.37,2013-02-25 11:20:00,
2013-02-25 05:25:00,13.8,9.6,30.06,North,0,0.2,1.2,83,0.00,CLR,CLR,0.00,WeatherDisplay:10.37,2013-02-25 11:25:00,
2013-02-25 05:30:00,14.2,10.0,30.06,NE,45,0.0,0.0,83,0.00,CLR,CLR,0.00,WeatherDisplay:10.37,2013-02-25 11:30:00,
2013-02-25 05:36:00,14.4,10.1,30.06,WNW,292,0.3,1.1,83,0.00,CLR,CLR,0.00,WeatherDisplay:10.37,2013-02-25 11:36:00,
2013-02-25 05:41:00,14.5,10.3,30.06,WNW,292,0.5,1.2,83,0.00,CLR,CLR,0.00,WeatherDisplay:10.37,2013-02-25 11:41:00,
2013-02-25 05:46:00,14.7,10.5,30.06,NNW,338,0.0,0.0,83,0.00,CLR,CLR,0.00,WeatherDisplay:10.37,2013-02-25 11:46:00,
2013-02-25 05:51:00,15.1,10.8,30.07,West,270,0.0,0.0,83,0.00,CLR,CLR,0.00,WeatherDisplay:10.37,2013-02-25 11:51:00,
2013-02-25 05:56:00,15.3,11.0,30.07,West,270,0.0,0.0,83,0.00,CLR,CLR,0.00,WeatherDisplay:10.37,2013-02-25 11:56:00,
2013-02-25 06:02:00,15.6,11.4,30.07,NW,315,0.0,0.0,83,0.00,CLR,CLR,0.00,WeatherDisplay:10.37,2013-02-25 12:02:00,
2013-02-25 06:07:00,15.6,11.4,30.07,SSE,158,0.0,0.0,83,0.00,CLR,CLR,0.00,WeatherDisplay:10.37,2013-02-25 12:07:00,
2013-02-25 06:12:00,15.8,11.6,30.07,NW,315,1.2,1.2,83,0.00,CLR,CLR,0.00,WeatherDisplay:10.37,2013-02-25 12:12:00,
2013-02-25 06:17:00,16.0,11.7,30.06,NNE,22,0.0,0.0,83,0.00,CLR,CLR,0.00,WeatherDisplay:10.37,2013-02-25 12:17:00,
2013-02-25 06:22:00,16.3,12.1,30.07,West,270,0.0,0.0,83,0.00,CLR,CLR,0.00,WeatherDisplay:10.37,2013-02-25 12:22:00,
2013-02-25 06:28:00,16.3,12.1,30.07,SSE,158,2.0,2.3,83,0.00,CLR,CLR,0.00,WeatherDisplay:10.37,2013-02-25 12:28:00,
2013-02-25 06:33:00,16.5,12.3,30.07,East,90,0.0,0.0,83,0.00,CLR,CLR,0.00,WeatherDisplay:10.37,2013-02-25 12:33:00,
2013-02-25 06:38:00,16.7,12.4,30.07,SE,135,1.2,2.3,83,0.00,CLR,CLR,0.00,WeatherDisplay:10.37,2013-02-25 12:38:00,
2013-02-25 06:43:00,16.7,12.4,30.08,East,90,0.0,0.0,83,0.00,CLR,CLR,0.00,WeatherDisplay:10.37,2013-02-25 12:43:00,
2013-02-25 06:48:00,16.9,12.6,30.08,South,180,0.3,0.0,83,0.00,CLR,CLR,0.00,WeatherDisplay:10.37,2013-02-25 12:48:00,
2013-02-25 06:53:00,16.9,12.6,30.08,WSW,248,0.0,0.0,83,0.00,CLR,CLR,0.00,WeatherDisplay:10.37,2013-02-25 12:53:00,
2013-02-25 06:58:00,17.2,13.0,30.08,South,180,0.0,0.0,83,0.00,CLR,CLR,0.00,WeatherDisplay:10.37,2013-02-25 12:58:00,
2013-02-25 07:03:00,17.2,13.0,30.08,SSW,202,0.0,0.0,83,0.00,CLR,CLR,0.00,WeatherDisplay:10.37,2013-02-25 13:03:00,
2013-02-25 07:08:00,17.4,13.1,30.09,WSW,248,0.0,0.0,83,0.00,CLR,CLR,0.00,WeatherDisplay:10.37,2013-02-25 13:08:00,
2013-02-25 07:13:00,17.4,13.1,30.08,NW,315,0.9,1.2,83,0.00,CLR,CLR,0.00,WeatherDisplay:10.37,2013-02-25 13:13:00,
2013-02-25 07:19:00,17.8,13.5,30.09,West,270,0.0,0.0,83,0.00,CLR,CLR,0.00,WeatherDisplay:10.37,2013-02-25 13:19:00,
2013-02-25 07:24:00,17.8,13.5,30.08,WNW,292,0.2,0.0,83,0.00,CLR,CLR,0.00,WeatherDisplay:10.37,2013-02-25 13:24:00,
2013-02-25 07:29:00,18.0,13.7,30.09,WNW,292,0.7,1.6,83,0.00,CLR,CLR,0.00,WeatherDisplay:10.37,2013-02-25 13:29:00,
2013-02-25 07:34:00,18.1,13.8,30.10,WNW,292,0.0,0.0,83,0.00,CLR,CLR,0.00,WeatherDisplay:10.37,2013-02-25 13:34:00,
2013-02-25 07:39:00,18.5,14.2,30.09,WSW,248,0.0,1.2,83,0.00,CLR,CLR,0.00,WeatherDisplay:10.37,2013-02-25 13:39:00,
2013-02-25 07:44:00,18.7,14.4,30.09,WNW,292,0.0,0.0,83,0.00,CLR,CLR,0.00,WeatherDisplay:10.37,2013-02-25 13:44:00,
2013-02-25 07:50:00,19.0,14.4,30.08,NW,315,0.0,0.0,82,0.00,CLR,CLR,0.00,WeatherDisplay:10.37,2013-02-25 13:50:00,
2013-02-25 07:55:00,19.2,14.6,30.09,NNW,338,0.0,0.0,82,0.00,CLR,CLR,0.00,WeatherDisplay:10.37,2013-02-25 13:55:00,
2013-02-25 08:00:00,19.6,15.0,30.09,NW,315,0.0,0.0,82,0.00,CLR,CLR,0.00,WeatherDisplay:10.37,2013-02-25 14:00:00,
2013-02-25 08:05:00,19.8,14.9,30.08,WNW,292,1.4,2.5,81,0.00,CLR,CLR,0.00,WeatherDisplay:10.37,2013-02-25 14:05:00,
2013-02-25 08:10:00,19.9,15.0,30.09,NW,315,1.4,2.3,81,0.00,CLR,CLR,0.00,WeatherDisplay:10.37,2013-02-25 14:10:00,
2013-02-25 08:16:00,19.9,15.0,30.09,NNW,338,3.7,4.2,81,0.00,CLR,CLR,0.00,WeatherDisplay:10.37,2013-02-25 14:16:00,
2013-02-25 08:21:00,19.9,15.0,30.08,NW,315,4.7,4.7,81,0.00,CLR,CLR,0.00,WeatherDisplay:10.37,2013-02-25 14:21:00,
2013-02-25 08:26:00,20.1,15.2,30.08,NW,315,1.8,3.5,81,0.00,CLR,CLR,0.00,WeatherDisplay:10.37,2013-02-25 14:26:00,
2013-02-25 08:31:00,20.5,15.3,30.08,North,0,2.9,3.5,80,0.00,CLR,CLR,0.00,WeatherDisplay:10.37,2013-02-25 14:31:00,
2013-02-25 08:36:00,20.8,15.6,30.08,NNW,338,0.1,0.0,80,0.00,CLR,CLR,0.00,WeatherDisplay:10.37,2013-02-25 14:36:00,
2013-02-25 08:42:00,21.0,15.8,30.08,NNE,22,0.1,0.0,80,0.00,CLR,CLR,0.00,WeatherDisplay:10.37,2013-02-25 14:42:00,
2013-02-25 08:47:00,21.6,16.1,30.09,North,0,0.0,0.0,79,0.00,CLR,CLR,0.00,WeatherDisplay:10.37,2013-02-25 14:47:00,
2013-02-25 08:52:00,22.1,16.6,30.09,NNW,338,0.0,2.3,79,0.00,CLR,CLR,0.00,WeatherDisplay:10.37,2013-02-25 14:52:00,
2013-02-25 08:57:00,22.8,17.3,30.09,North,0,0.0,0.0,79,0.00,CLR,CLR,0.00,WeatherDisplay:10.37,2013-02-25 14:57:00,
2013-02-25 09:02:00,23.7,17.9,30.09,North,0,0.0,0.0,78,0.00,CLR,CLR,0.00,WeatherDisplay:10.37,2013-02-25 15:02:00,
2013-02-25 09:08:00,24.6,18.4,30.09,SE,135,0.0,0.0,77,0.00,CLR,CLR,0.00,WeatherDisplay:10.37,2013-02-25 15:08:00,
2013-02-25 09:13:00,25.5,19.0,30.10,NNW,338,0.0,0.0,76,0.00,CLR,CLR,0.00,WeatherDisplay:10.37,2013-02-25 15:13:00,
2013-02-25 09:18:00,26.2,19.1,30.10,West,270,0.4,2.3,74,0.00,CLR,CLR,0.00,WeatherDisplay:10.37,2013-02-25 15:18:00,
2013-02-25 09:23:00,26.4,19.3,30.10,West,270,0.0,0.0,74,0.00,CLR,CLR,0.00,WeatherDisplay:10.37,2013-02-25 15:23:00,
2013-02-25 09:28:00,27.0,19.5,30.10,North,0,0.0,0.0,73,0.00,CLR,CLR,0.00,WeatherDisplay:10.37,2013-02-25 15:28:00,
2013-02-25 09:34:00,27.3,19.5,30.10,NW,315,0.0,1.3,72,0.00,CLR,CLR,0.00,WeatherDisplay:10.37,2013-02-25 15:34:00,
2013-02-25 09:39:00,27.5,19.3,30.09,WNW,292,0.4,3.5,71,0.00,CLR,CLR,0.00,WeatherDisplay:10.37,2013-02-25 15:39:00,
2013-02-25 09:44:00,27.3,18.8,30.09,WNW,292,1.1,2.5,70,0.00,CLR,CLR,0.00,WeatherDisplay:10.37,2013-02-25 15:44:00,
2013-02-25 09:49:00,27.1,18.6,30.10,WNW,292,0.9,2.3,70,0.00,CLR,CLR,0.00,WeatherDisplay:10.37,2013-02-25 15:49:00,
2013-02-25 09:55:00,27.5,19.0,30.09,NW,315,1.1,2.3,70,0.00,CLR,CLR,0.00,WeatherDisplay:10.37,2013-02-25 15:55:00,
2013-02-25 10:00:00,28.2,19.7,30.09,NNE,22,0.2,2.3,70,0.00,CLR,CLR,0.00,WeatherDisplay:10.37,2013-02-25 16:00:00,
2013-02-25 10:05:00,29.1,20.6,30.09,WNW,292,0.4,1.2,70,0.00,CLR,CLR,0.00,WeatherDisplay:10.37,2013-02-25 16:05:00,
2013-02-25 10:10:00,30.0,20.7,30.09,WNW,292,1.8,2.5,68,0.00,CLR,CLR,0.00,WeatherDisplay:10.37,2013-02-25 16:10:00,
2013-02-25 10:16:00,30.0,20.4,30.09,North,0,2.1,2.3,67,0.00,CLR,CLR,0.00,WeatherDisplay:10.37,2013-02-25 16:16:00,
2013-02-25 10:21:00,30.0,20.4,30.09,WNW,292,1.3,4.6,67,0.00,CLR,CLR,0.00,WeatherDisplay:10.37,2013-02-25 16:21:00,
2013-02-25 10:26:00,30.0,20.4,30.09,NW,315,2.6,3.5,67,0.00,CLR,CLR,0.00,WeatherDisplay:10.37,2013-02-25 16:26:00,
2013-02-25 10:31:00,29.8,20.2,30.09,WNW,292,3.1,4.6,67,0.00,CLR,CLR,0.00,WeatherDisplay:10.37,2013-02-25 16:31:00,
2013-02-25 10:36:00,29.3,20.0,30.08,WNW,292,0.6,2.3,68,0.00,CLR,CLR,0.00,WeatherDisplay:10.37,2013-02-25 16:36:00,
2013-02-25 10:42:00,30.0,21.1,30.08,NW,315,0.0,0.0,69,0.00,CLR,CLR,0.00,WeatherDisplay:10.37,2013-02-25 16:42:00,
2013-02-25 10:47:00,31.3,21.9,30.08,NE,45,0.0,0.0,68,0.00,CLR,CLR,0.00,WeatherDisplay:10.37,2013-02-25 16:47:00,
2013-02-25 10:52:00,32.7,23.3,30.08,NNE,22,0.0,0.0,68,0.00,CLR,CLR,0.00,WeatherDisplay:10.37,2013-02-25 16:52:00,
2013-02-25 10:57:00,34.0,23.8,30.08,NNW,338,0.0,0.0,66,0.00,CLR,CLR,0.00,WeatherDisplay:10.37,2013-02-25 16:57:00,
2013-02-25 11:03:00,34.7,24.1,30.08,WSW,248,0.0,0.0,65,0.00,CLR,CLR,0.00,WeatherDisplay:10.37,2013-02-25 17:03:00,
2013-02-25 11:08:00,36.0,25.0,30.08,WNW,292,0.6,2.2,64,0.00,CLR,CLR,0.00,WeatherDisplay:10.37,2013-02-25 17:08:00,
2013-02-25 11:13:00,36.3,24.5,30.08,WNW,292,0.4,2.3,62,0.00,CLR,CLR,0.00,WeatherDisplay:10.37,2013-02-25 17:13:00,
2013-02-25 11:18:00,36.9,24.7,30.08,NNW,338,1.2,3.5,61,0.00,CLR,CLR,0.00,WeatherDisplay:10.37,2013-02-25 17:18:00,
2013-02-25 11:23:00,36.9,24.3,30.08,North,0,1.2,2.3,60,0.00,CLR,CLR,0.00,WeatherDisplay:10.37,2013-02-25 17:23:00,
2013-02-25 11:28:00,37.2,25.0,30.08,ESE,112,0.0,0.0,61,0.00,CLR,CLR,0.00,WeatherDisplay:10.37,2013-02-25 17:28:00,
2013-02-25 11:34:00,37.9,25.3,30.08,SSE,158,0.5,2.3,60,0.00,CLR,CLR,0.00,WeatherDisplay:10.37,2013-02-25 17:34:00,
2013-02-25 11:39:00,39.2,26.5,30.08,South,180,2.1,3.6,60,0.00,CLR,CLR,0.00,WeatherDisplay:10.37,2013-02-25 17:39:00,
2013-02-25 11:44:00,39.9,26.3,30.08,SSE,158,3.1,4.6,58,0.00,CLR,CLR,0.00,WeatherDisplay:10.37,2013-02-25 17:44:00,
2013-02-25 11:49:00,40.5,26.4,30.08,SE,135,0.6,2.3,57,0.00,CLR,CLR,0.00,WeatherDisplay:10.37,2013-02-25 17:49:00,
2013-02-25 11:55:00,40.8,26.3,30.09,SE,135,0.0,0.0,56,0.00,CLR,CLR,0.00,WeatherDisplay:10.37,2013-02-25 17:55:00,
2013-02-25 12:00:00,40.6,25.7,30.08,South,180,1.0,2.3,55,0.00,CLR,CLR,0.00,WeatherDisplay:10.37,2013-02-25 18:00:00,
2013-02-25 12:05:00,40.1,25.2,30.08,West,270,0.9,2.3,55,0.00,CLR,CLR,0.00,WeatherDisplay:10.37,2013-02-25 18:05:00,
2013-02-25 12:10:00,39.7,24.4,30.08,WSW,248,5.8,5.8,54,0.00,CLR,CLR,0.00,WeatherDisplay:10.37,2013-02-25 18:10:00,
2013-02-25 12:16:00,38.5,23.3,30.08,SSW,202,4.4,8.1,54,0.00,CLR,CLR,0.00,WeatherDisplay:10.37,2013-02-25 18:16:00,
2013-02-25 12:21:00,39.0,24.6,30.08,SW,225,1.4,1.4,56,0.00,CLR,CLR,0.00,WeatherDisplay:10.37,2013-02-25 18:21:00,
2013-02-25 12:26:00,39.7,25.3,30.07,SE,135,2.2,3.5,56,0.00,CLR,CLR,0.00,WeatherDisplay:10.37,2013-02-25 18:26:00,
2013-02-25 12:31:00,41.5,26.6,30.07,SW,225,3.0,5.4,55,0.00,CLR,CLR,0.00,WeatherDisplay:10.37,2013-02-25 18:31:00,
2013-02-25 12:36:00,41.7,25.8,30.07,West,270,5.7,6.9,53,0.00,CLR,CLR,0.00,WeatherDisplay:10.37,2013-02-25 18:36:00,
2013-02-25 12:41:00,40.1,24.3,30.07,West,270,0.3,2.3,53,0.00,CLR,CLR,0.00,WeatherDisplay:10.37,2013-02-25 18:41:00,
2013-02-25 12:47:00,39.7,24.0,30.07,South,180,3.8,5.8,53,0.00,CLR,CLR,0.00,WeatherDisplay:10.37,2013-02-25 18:47:00,
2013-02-25 12:52:00,39.9,24.6,30.07,SSW,202,3.8,5.8,54,0.00,CLR,CLR,0.00,WeatherDisplay:10.37,2013-02-25 18:52:00,
2013-02-25 12:57:00,40.1,24.8,30.07,WSW,248,3.0,3.5,54,0.00,CLR,CLR,0.00,WeatherDisplay:10.37,2013-02-25 18:57:00,
2013-02-25 13:02:00,39.9,23.7,30.06,WNW,292,2.2,4.6,52,0.00,CLR,CLR,0.00,WeatherDisplay:10.37,2013-02-25 19:02:00,
2013-02-25 13:07:00,37.6,22.0,30.06,West,270,4.3,5.8,53,0.00,CLR,CLR,0.00,WeatherDisplay:10.37,2013-02-25 19:07:00,
2013-02-25 13:13:00,35.8,21.6,30.06,West,270,0.8,3.5,56,0.00,CLR,CLR,0.00,WeatherDisplay:10.37,2013-02-25 19:13:00,
2013-02-25 13:18:00,36.5,22.7,30.06,West,270,2.1,3.5,57,0.00,CLR,CLR,0.00,WeatherDisplay:10.37,2013-02-25 19:18:00,
2013-02-25 13:23:00,37.6,23.7,30.05,WNW,292,1.7,4.6,57,0.00,CLR,CLR,0.00,WeatherDisplay:10.37,2013-02-25 19:23:00,
2013-02-25 13:28:00,37.2,22.9,30.06,WNW,292,3.7,4.9,56,0.00,CLR,CLR,0.00,WeatherDisplay:10.37,2013-02-25 19:28:00,
2013-02-25 13:33:00,35.8,22.0,30.05,NW,315,7.1,9.2,57,0.00,CLR,CLR,0.00,WeatherDisplay:10.37,2013-02-25 19:33:00,
2013-02-25 13:39:00,34.2,21.3,30.05,North,0,5.5,8.1,59,0.00,CLR,CLR,0.00,WeatherDisplay:10.37,2013-02-25 19:39:00,
2013-02-25 13:44:00,33.1,21.1,30.06,NNW,338,5.2,8.1,61,0.00,CLR,CLR,0.00,WeatherDisplay:10.37,2013-02-25 19:44:00,
2013-02-25 13:49:00,33.1,21.5,30.06,WNW,292,7.6,8.1,62,0.00,CLR,CLR,0.00,WeatherDisplay:10.37,2013-02-25 19:49:00,
2013-02-25 13:54:00,33.1,21.5,30.05,West,270,5.3,9.2,62,0.00,CLR,CLR,0.00,WeatherDisplay:10.37,2013-02-25 19:54:00,
2013-02-25 14:00:00,33.1,21.8,30.05,WNW,292,3.4,5.8,63,0.00,CLR,CLR,0.00,WeatherDisplay:10.37,2013-02-25 20:00:00,
2013-02-25 14:05:00,32.7,21.5,30.05,West,270,5.0,8.1,63,0.00,CLR,CLR,0.00,WeatherDisplay:10.37,2013-02-25 20:05:00,
2013-02-25 14:10:00,32.5,21.7,30.05,WSW,248,4.7,8.1,64,0.00,CLR,CLR,0.00,WeatherDisplay:10.37,2013-02-25 20:10:00,
2013-02-25 14:15:00,32.9,22.0,30.05,West,270,2.6,4.6,64,0.00,CLR,CLR,0.00,WeatherDisplay:10.37,2013-02-25 20:15:00,
2013-02-25 14:21:00,33.6,22.7,30.05,West,270,3.9,5.8,64,0.00,CLR,CLR,0.00,WeatherDisplay:10.37,2013-02-25 20:21:00,
2013-02-25 14:26:00,34.0,22.7,30.05,West,270,4.3,6.9,63,0.00,CLR,CLR,0.00,WeatherDisplay:10.37,2013-02-25 20:26:00,
2013-02-25 14:31:00,34.2,22.5,30.05,WNW,292,3.1,4.6,62,0.00,CLR,CLR,0.00,WeatherDisplay:10.37,2013-02-25 20:31:00,
2013-02-25 14:36:00,33.6,22.0,30.05,West,270,3.5,4.6,62,0.00,CLR,CLR,0.00,WeatherDisplay:10.37,2013-02-25 20:36:00,
2013-02-25 14:42:00,33.3,22.0,30.05,West,270,3.9,4.7,63,0.00,CLR,CLR,0.00,WeatherDisplay:10.37,2013-02-25 20:42:00,
2013-02-25 14:47:00,32.9,22.0,30.04,West,270,4.5,8.1,64,0.00,CLR,CLR,0.00,WeatherDisplay:10.37,2013-02-25 20:47:00,
2013-02-25 14:52:00,32.7,22.2,30.04,West,270,3.7,5.8,65,0.00,CLR,CLR,0.00,WeatherDisplay:10.37,2013-02-25 20:52:00,
2013-02-25 14:58:00,32.5,22.1,30.04,West,270,4.5,6.9,65,0.00,CLR,CLR,0.00,WeatherDisplay:10.37,2013-02-25 20:58:00,
2013-02-25 15:03:00,32.4,21.9,30.04,WNW,292,5.0,8.1,65,0.00,CLR,CLR,0.00,WeatherDisplay:10.37,2013-02-25 21:03:00,
2013-02-25 15:08:00,32.2,21.7,30.04,WNW,292,5.7,8.1,65,0.00,CLR,CLR,0.00,WeatherDisplay:10.37,2013-02-25 21:08:00,
2013-02-25 15:13:00,32.2,21.7,30.04,WNW,292,4.1,5.8,65,0.00,CLR,CLR,0.00,WeatherDisplay:10.37,2013-02-25 21:13:00,
2013-02-25 15:19:00,32.2,22.1,30.04,WNW,292,4.0,4.6,66,0.00,CLR,CLR,0.00,WeatherDisplay:10.37,2013-02-25 21:19:00,
2013-02-25 15:24:00,32.2,22.1,30.04,WNW,292,3.5,4.7,66,0.00,CLR,CLR,0.00,WeatherDisplay:10.37,2013-02-25 21:24:00,
2013-02-25 15:29:00,32.7,22.2,30.03,NW,315,2.9,3.5,65,0.00,CLR,CLR,0.00,WeatherDisplay:10.37,2013-02-25 21:29:00,
2013-02-25 15:34:00,32.9,22.4,30.04,West,270,1.1,3.5,65,0.00,CLR,CLR,0.00,WeatherDisplay:10.37,2013-02-25 21:34:00,
2013-02-25 15:39:00,33.3,22.8,30.04,WNW,292,3.5,5.8,65,0.00,CLR,CLR,0.00,WeatherDisplay:10.37,2013-02-25 21:39:00,
2013-02-25 15:45:00,33.4,22.6,30.05,NW,315,3.3,5.8,64,0.00,CLR,CLR,0.00,WeatherDisplay:10.37,2013-02-25 21:45:00,
2013-02-25 15:50:00,33.6,22.7,30.05,NW,315,2.9,4.6,64,0.00,CLR,CLR,0.00,WeatherDisplay:10.37,2013-02-25 21:50:00,
2013-02-25 15:55:00,33.6,22.7,30.05,West,270,1.7,2.3,64,0.00,CLR,CLR,0.00,WeatherDisplay:10.37,2013-02-25 21:55:00,
2013-02-25 16:00:00,33.6,22.4,30.05,NNW,338,0.3,3.5,63,0.00,CLR,CLR,0.00,WeatherDisplay:10.37,2013-02-25 22:00:00,
2013-02-25 16:05:00,33.8,22.5,30.05,NW,315,0.4,2.3,63,0.00,CLR,CLR,0.00,WeatherDisplay:10.37,2013-02-25 22:05:00,
2013-02-25 16:11:00,34.2,22.9,30.05,WNW,292,2.1,4.0,63,0.00,CLR,CLR,0.00,WeatherDisplay:10.37,2013-02-25 22:11:00,
2013-02-25 16:16:00,34.0,22.7,30.04,WNW,292,1.2,2.3,63,0.00,CLR,CLR,0.00,WeatherDisplay:10.37,2013-02-25 22:16:00,
2013-02-25 16:21:00,34.0,22.7,30.05,West,270,1.7,3.6,63,0.00,CLR,CLR,0.00,WeatherDisplay:10.37,2013-02-25 22:21:00,
2013-02-25 16:27:00,34.0,22.7,30.05,NNW,338,2.7,4.6,63,0.00,CLR,CLR,0.00,WeatherDisplay:10.37,2013-02-25 22:27:00,
2013-02-25 16:32:00,33.8,22.5,30.05,WNW,292,0.7,2.9,63,0.00,CLR,CLR,0.00,WeatherDisplay:10.37,2013-02-25 22:32:00,
2013-02-25 16:37:00,33.6,22.4,30.05,West,270,1.0,3.5,63,0.00,CLR,CLR,0.00,WeatherDisplay:10.37,2013-02-25 22:37:00,
2013-02-25 16:42:00,33.3,22.0,30.05,NW,315,1.7,2.3,63,0.00,CLR,CLR,0.00,WeatherDisplay:10.37,2013-02-25 22:42:00,
2013-02-25 16:48:00,33.1,22.2,30.05,NW,315,1.6,2.3,64,0.00,CLR,CLR,0.00,WeatherDisplay:10.37,2013-02-25 22:48:00,
2013-02-25 16:53:00,33.1,22.2,30.05,WNW,292,2.2,3.5,64,0.00,CLR,CLR,0.00,WeatherDisplay:10.37,2013-02-25 22:53:00,
2013-02-25 16:58:00,32.5,21.7,30.05,West,270,0.2,2.3,64,0.00,CLR,CLR,0.00,WeatherDisplay:10.37,2013-02-25 22:58:00,
2013-02-25 17:03:00,32.2,21.4,30.05,WNW,292,1.0,2.3,64,0.00,CLR,CLR,0.00,WeatherDisplay:10.37,2013-02-25 23:03:00,
2013-02-25 17:08:00,32.2,21.7,30.05,West,270,1.2,2.3,65,0.00,CLR,CLR,0.00,WeatherDisplay:10.37,2013-02-25 23:08:00,
2013-02-25 17:13:00,31.8,21.4,30.05,West,270,0.3,0.0,65,0.00,CLR,CLR,0.00,WeatherDisplay:10.37,2013-02-25 23:13:00,
2013-02-25 17:19:00,31.3,21.2,30.05,WNW,292,3.2,4.0,66,0.00,CLR,CLR,0.00,WeatherDisplay:10.37,2013-02-25 23:19:00,
2013-02-25 17:24:00,30.7,20.7,30.05,WNW,292,2.8,3.5,66,0.00,CLR,CLR,0.00,WeatherDisplay:10.37,2013-02-25 23:24:00,
2013-02-25 17:29:00,30.0,20.4,30.05,WNW,292,3.7,4.6,67,0.00,CLR,CLR,0.00,WeatherDisplay:10.37,2013-02-25 23:29:00,
2013-02-25 17:34:00,29.5,20.2,30.05,NW,315,4.8,5.8,68,0.00,CLR,CLR,0.00,WeatherDisplay:10.37,2013-02-25 23:34:00,
2013-02-25 17:40:00,28.8,19.5,30.05,WNW,292,4.3,5.8,68,0.00,CLR,CLR,0.00,WeatherDisplay:10.37,2013-02-25 23:40:00,
2013-02-25 17:45:00,27.9,19.3,30.05,NW,315,4.1,5.8,70,0.00,CLR,CLR,0.00,WeatherDisplay:10.37,2013-02-25 23:45:00,
2013-02-25 17:50:00,27.1,19.0,30.05,NNW,338,2.2,3.5,71,0.00,CLR,CLR,0.00,WeatherDisplay:10.37,2013-02-25 23:50:00,
2013-02-25 17:55:00,26.8,18.6,30.05,NW,315,4.5,5.8,71,0.00,CLR,CLR,0.00,WeatherDisplay:10.37,2013-02-25 23:55:00,
2013-02-25 18:01:00,26.1,18.3,30.05,WNW,292,3.1,3.5,72,0.00,CLR,CLR,0.00,WeatherDisplay:10.37,2013-02-26 00:01:00,
2013-02-25 18:06:00,25.5,17.7,30.05,NW,315,4.2,5.8,72,0.00,CLR,CLR,0.00,WeatherDisplay:10.37,2013-02-26 00:06:00,
2013-02-25 18:11:00,25.0,17.9,30.05,NW,315,5.6,6.9,74,0.00,CLR,CLR,0.00,WeatherDisplay:10.37,2013-02-26 00:11:00,
2013-02-25 18:16:00,24.6,17.8,30.05,West,270,1.2,2.3,75,0.00,CLR,CLR,0.00,WeatherDisplay:10.37,2013-02-26 00:16:00,
2013-02-25 18:22:00,24.4,17.6,30.06,WNW,292,0.2,2.3,75,0.00,CLR,CLR,0.00,WeatherDisplay:10.37,2013-02-26 00:22:00,
2013-02-25 18:27:00,24.1,17.3,30.06,NW,315,1.7,2.3,75,0.00,CLR,CLR,0.00,WeatherDisplay:10.37,2013-02-26 00:27:00,
2013-02-25 18:32:00,23.7,17.0,30.06,WNW,292,0.7,1.2,75,0.00,CLR,CLR,0.00,WeatherDisplay:10.37,2013-02-26 00:32:00,
2013-02-25 18:37:00,23.5,17.1,30.06,WNW,292,0.0,0.0,76,0.00,CLR,CLR,0.00,WeatherDisplay:10.37,2013-02-26 00:37:00,
2013-02-25 18:42:00,23.4,17.2,30.06,WNW,292,0.0,0.0,77,0.00,CLR,CLR,0.00,WeatherDisplay:10.37,2013-02-26 00:42:00,
2013-02-25 18:48:00,22.8,16.7,30.06,WNW,292,0.7,3.5,77,0.00,CLR,CLR,0.00,WeatherDisplay:10.37,2013-02-26 00:48:00,
2013-02-25 18:53:00,22.5,16.6,30.05,NW,315,0.8,1.2,78,0.00,CLR,CLR,0.00,WeatherDisplay:10.37,2013-02-26 00:53:00,
2013-02-25 18:58:00,22.1,16.3,30.05,WNW,292,0.3,1.2,78,0.00,CLR,CLR,0.00,WeatherDisplay:10.37,2013-02-26 00:58:00,
2013-02-25 19:03:00,21.9,16.1,30.06,West,270,0.7,1.2,78,0.00,CLR,CLR,0.00,WeatherDisplay:10.37,2013-02-26 01:03:00,
2013-02-25 19:09:00,21.9,16.1,30.06,WNW,292,1.5,2.3,78,0.00,CLR,CLR,0.00,WeatherDisplay:10.37,2013-02-26 01:09:00,
2013-02-25 19:14:00,21.6,16.1,30.05,NW,315,0.2,1.2,79,0.00,CLR,CLR,0.00,WeatherDisplay:10.37,2013-02-26 01:14:00,
2013-02-25 19:19:00,21.4,15.9,30.06,West,270,0.0,0.0,79,0.00,CLR,CLR,0.00,WeatherDisplay:10.37,2013-02-26 01:19:00,
2013-02-25 19:24:00,21.4,15.9,30.06,West,270,0.0,0.0,79,0.00,CLR,CLR,0.00,WeatherDisplay:10.37,2013-02-26 01:24:00,
2013-02-25 19:29:00,21.4,15.9,30.06,WNW,292,0.0,0.0,79,0.00,CLR,CLR,0.00,WeatherDisplay:10.37,2013-02-26 01:29:00,
2013-02-25 19:34:00,20.8,15.4,30.06,WNW,292,0.2,2.3,79,0.00,CLR,CLR,0.00,WeatherDisplay:10.37,2013-02-26 01:34:00,
2013-02-25 19:40:00,20.5,15.3,30.05,WNW,292,0.3,1.2,80,0.00,CLR,CLR,0.00,WeatherDisplay:10.37,2013-02-26 01:40:00,
2013-02-25 19:45:00,20.3,15.1,30.05,West,270,0.0,0.0,80,0.00,CLR,CLR,0.00,WeatherDisplay:10.37,2013-02-26 01:45:00,
2013-02-25 19:50:00,20.1,14.9,30.05,SSW,202,0.5,1.2,80,0.00,CLR,CLR,0.00,WeatherDisplay:10.37,2013-02-26 01:50:00,
2013-02-25 19:55:00,19.9,14.8,30.05,WNW,292,0.0,0.0,80,0.00,CLR,CLR,0.00,WeatherDisplay:10.37,2013-02-26 01:55:00,
2013-02-25 20:01:00,19.6,14.1,30.05,WNW,292,0.0,0.0,79,0.00,CLR,CLR,0.00,WeatherDisplay:10.37,2013-02-26 02:01:00,
2013-02-25 20:06:00,19.2,13.8,30.05,WNW,292,0.0,0.0,79,0.00,CLR,CLR,0.00,WeatherDisplay:10.37,2013-02-26 02:06:00,
2013-02-25 20:11:00,19.2,13.8,30.05,South,180,0.0,0.0,79,0.00,CLR,CLR,0.00,WeatherDisplay:10.37,2013-02-26 02:11:00,
2013-02-25 20:16:00,18.9,13.4,30.06,WSW,248,0.0,0.0,79,0.00,CLR,CLR,0.00,WeatherDisplay:10.37,2013-02-26 02:16:00,
2013-02-25 20:22:00,18.5,13.1,30.06,NW,315,0.0,0.0,79,0.00,CLR,CLR,0.00,WeatherDisplay:10.37,2013-02-26 02:22:00,
2013-02-25 20:27:00,18.3,13.2,30.05,NNW,338,1.4,1.4,80,0.00,CLR,CLR,0.00,WeatherDisplay:10.37,2013-02-26 02:27:00,
2013-02-25 20:32:00,18.1,13.0,30.05,NNW,338,0.0,1.2,80,0.00,CLR,CLR,0.00,WeatherDisplay:10.37,2013-02-26 02:32:00,
2013-02-25 20:37:00,18.0,12.8,30.05,North,0,0.0,0.0,80,0.00,CLR,CLR,0.00,WeatherDisplay:10.37,2013-02-26 02:37:00,
2013-02-25 20:42:00,17.8,12.7,30.05,WNW,292,0.0,0.0,80,0.00,CLR,CLR,0.00,WeatherDisplay:10.37,2013-02-26 02:42:00,
2013-02-25 20:48:00,17.4,12.3,30.05,West,270,0.0,0.0,80,0.00,CLR,CLR,0.00,WeatherDisplay:10.37,2013-02-26 02:48:00,
2013-02-25 20:53:00,17.2,12.1,30.05,West,270,0.0,0.0,80,0.00,CLR,CLR,0.00,WeatherDisplay:10.37,2013-02-26 02:53:00,
2013-02-25 20:58:00,16.9,11.8,30.05,WNW,292,0.0,0.0,80,0.00,CLR,CLR,0.00,WeatherDisplay:10.37,2013-02-26 02:58:00,
2013-02-25 21:04:00,16.7,11.6,30.05,WNW,292,0.0,0.0,80,0.00,CLR,CLR,0.00,WeatherDisplay:10.37,2013-02-26 03:04:00,
2013-02-25 21:09:00,16.3,11.3,30.04,WNW,292,0.0,0.0,80,0.00,CLR,CLR,0.00,WeatherDisplay:10.37,2013-02-26 03:09:00,
2013-02-25 21:14:00,16.3,11.3,30.05,SSW,202,0.0,0.0,80,0.00,CLR,CLR,0.00,WeatherDisplay:10.37,2013-02-26 03:14:00,
2013-02-25 21:19:00,16.2,11.1,30.04,WSW,248,0.0,0.0,80,0.00,CLR,CLR,0.00,WeatherDisplay:10.37,2013-02-26 03:19:00,
2013-02-25 21:24:00,16.0,10.9,30.04,West,270,0.0,0.0,80,0.00,CLR,CLR,0.00,WeatherDisplay:10.37,2013-02-26 03:24:00,
2013-02-25 21:30:00,15.6,10.3,30.03,NW,315,0.0,0.0,79,0.00,CLR,CLR,0.00,WeatherDisplay:10.37,2013-02-26 03:30:00,
2013-02-25 21:35:00,15.4,10.4,30.04,South,180,0.0,0.0,80,0.00,CLR,CLR,0.00,WeatherDisplay:10.37,2013-02-26 03:35:00,
2013-02-25 21:40:00,15.4,10.4,30.04,SSE,158,0.0,0.0,80,0.00,CLR,CLR,0.00,WeatherDisplay:10.37,2013-02-26 03:40:00,
2013-02-25 21:45:00,15.1,10.0,30.04,SSE,158,0.0,0.0,80,0.00,CLR,CLR,0.00,WeatherDisplay:10.37,2013-02-26 03:45:00,
2013-02-25 21:50:00,14.9,9.8,30.03,WNW,292,0.0,0.0,80,0.00,CLR,CLR,0.00,WeatherDisplay:10.37,2013-02-26 03:50:00,
2013-02-25 21:56:00,14.7,9.7,30.03,West,270,0.0,0.0,80,0.00,CLR,CLR,0.00,WeatherDisplay:10.37,2013-02-26 03:56:00,
2013-02-25 22:01:00,14.5,9.5,30.03,NNW,338,0.0,0.0,80,0.00,CLR,CLR,0.00,WeatherDisplay:10.37,2013-02-26 04:01:00,
2013-02-25 22:06:00,14.4,9.3,30.03,West,270,0.0,0.0,80,0.00,CLR,CLR,0.00,WeatherDisplay:10.37,2013-02-26 04:06:00,
2013-02-25 22:11:00,14.2,9.1,30.03,West,270,0.0,0.0,80,0.00,CLR,CLR,0.00,WeatherDisplay:10.37,2013-02-26 04:11:00,
2013-02-25 22:16:00,14.2,9.1,30.03,WNW,292,0.0,0.0,80,0.00,CLR,CLR,0.00,WeatherDisplay:10.37,2013-02-26 04:16:00,
2013-02-25 22:22:00,14.2,9.4,30.03,West,270,0.0,0.0,81,0.00,CLR,CLR,0.00,WeatherDisplay:10.37,2013-02-26 04:22:00,
2013-02-25 22:27:00,14.2,9.4,30.03,WNW,292,0.0,0.0,81,0.00,CLR,CLR,0.00,WeatherDisplay:10.37,2013-02-26 04:27:00,
2013-02-25 22:32:00,14.5,10.0,30.03,West,270,0.0,0.0,82,0.00,CLR,CLR,0.00,WeatherDisplay:10.37,2013-02-26 04:32:00,
2013-02-25 22:37:00,14.9,10.4,30.03,WNW,292,0.0,0.0,82,0.00,CLR,CLR,0.00,WeatherDisplay:10.37,2013-02-26 04:37:00,
2013-02-25 22:43:00,15.4,11.2,30.03,West,270,1.2,1.2,83,0.00,CLR,CLR,0.00,WeatherDisplay:10.37,2013-02-26 04:43:00,
2013-02-25 22:48:00,16.0,12.0,30.03,WNW,292,0.0,0.0,84,0.00,CLR,CLR,0.00,WeatherDisplay:10.37,2013-02-26 04:48:00,
2013-02-25 22:53:00,16.5,12.8,30.03,WNW,292,0.0,0.0,85,0.00,CLR,CLR,0.00,WeatherDisplay:10.37,2013-02-26 04:53:00,
2013-02-25 22:58:00,17.2,13.5,30.03,WNW,292,0.0,0.0,85,0.00,CLR,CLR,0.00,WeatherDisplay:10.37,2013-02-26 04:58:00,
2013-02-25 23:00:00,17.2,13.5,30.03,West,270,0.0,0.0,85,0.00,CLR,CLR,0.00,WeatherDisplay:10.37,2013-02-26 05:00:00,
2013-02-25 23:01:00,17.2,13.5,30.03,West,270,0.0,0.0,85,0.00,CLR,CLR,0.00,WeatherDisplay:10.37,2013-02-26 05:01:00,
2013-02-25 23:02:00,17.4,13.7,30.03,West,270,0.0,0.0,85,0.00,CLR,CLR,0.00,WeatherDisplay:10.37,2013-02-26 05:02:00,
2013-02-25 23:07:00,17.8,14.0,30.04,WSW,248,0.0,0.0,85,0.00,CLR,CLR,0.00,WeatherDisplay:10.37,2013-02-26 05:07:00,
2013-02-25 23:12:00,18.1,14.4,30.03,West,270,0.1,0.0,85,0.00,CLR,CLR,0.00,WeatherDisplay:10.37,2013-02-26 05:12:00,
2013-02-25 23:18:00,18.3,14.6,30.04,WNW,292,0.7,1.6,85,0.00,CLR,CLR,0.00,WeatherDisplay:10.37,2013-02-26 05:18:00,
2013-02-25 23:23:00,18.5,15.0,30.04,NW,315,1.5,2.3,86,0.00,CLR,CLR,0.00,WeatherDisplay:10.37,2013-02-26 05:23:00,
2013-02-25 23:28:00,18.7,15.2,30.04,WNW,292,0.0,0.0,86,0.00,CLR,CLR,0.00,WeatherDisplay:10.37,2013-02-26 05:28:00,
2013-02-25 23:33:00,18.9,15.4,30.04,NNE,22,0.2,1.2,86,0.00,CLR,CLR,0.00,WeatherDisplay:10.37,2013-02-26 05:33:00,
2013-02-25 23:38:00,19.0,15.5,30.05,NW,315,2.0,2.9,86,0.00,CLR,CLR,0.00,WeatherDisplay:10.37,2013-02-26 05:38:00,
2013-02-25 23:44:00,19.0,15.5,30.04,NNW,338,0.0,1.2,86,0.00,CLR,CLR,0.00,WeatherDisplay:10.37,2013-02-26 05:44:00,
2013-02-25 23:49:00,19.0,15.5,30.05,NNW,338,0.0,0.0,86,0.00,CLR,CLR,0.00,WeatherDisplay:10.37,2013-02-26 05:49:00,
2013-02-25 23:54:00,19.2,15.7,30.04,NW,315,0.2,1.2,86,0.00,CLR,CLR,0.00,WeatherDisplay:10.37,2013-02-26 05:54:00,
2013-02-25 23:59:00,19.0,15.5,30.04,NNW,338,1.4,1.4,86,0.00,CLR,CLR,0.00,WeatherDisplay:10.37,2013-02-26 05:59:00,